createdAt,value
2023-05-08T00:00:33.458Z,9.5
2023-05-08T00:01:50.485Z,9.6
2023-05-08T00:03:07.508Z,9.6
2023-05-08T00:04:24.503Z,9.6
2023-05-08T00:05:41.515Z,9.6
2023-05-08T00:06:58.495Z,9.6
2023-05-08T00:08:15.468Z,9.6
2023-05-08T00:09:32.495Z,9.7
2023-05-08T00:10:49.476Z,9.7
2023-05-08T00:12:06.542Z,9.6
2023-05-08T00:13:23.609Z,9.6
2023-05-08T00:14:40.495Z,9.6
2023-05-08T00:15:57.477Z,9.6
2023-05-08T00:17:14.523Z,9.6
2023-05-08T00:18:31.519Z,9.6
2023-05-08T00:19:48.519Z,9.6
2023-05-08T00:21:05.768Z,9.5
2023-05-08T00:22:22.491Z,9.5
2023-05-08T00:23:39.545Z,9.5
2023-05-08T00:24:56.483Z,9.5
2023-05-08T00:26:13.517Z,9.5
2023-05-08T00:27:30.516Z,9.5
2023-05-08T00:28:47.541Z,9.5
2023-05-08T00:30:04.501Z,9.4
2023-05-08T00:31:21.497Z,9.4
2023-05-08T00:32:38.583Z,9.4
2023-05-08T00:33:55.559Z,9.4
2023-05-08T00:35:12.510Z,9.3
2023-05-08T00:36:29.519Z,9.1
2023-05-08T00:37:46.526Z,8.9
2023-05-08T00:39:03.557Z,8.7
2023-05-08T00:40:20.507Z,8.6
2023-05-08T00:41:37.509Z,8.5
2023-05-08T00:42:54.547Z,8.4
2023-05-08T00:44:11.579Z,8.3
2023-05-08T00:45:28.511Z,8.2
2023-05-08T00:46:45.648Z,8.2
2023-05-08T00:48:02.536Z,8.2
2023-05-08T00:49:19.593Z,8.2
2023-05-08T00:50:36.530Z,8.3
2023-05-08T00:51:53.661Z,8.4
2023-05-08T00:53:11.536Z,8.6
2023-05-08T00:54:28.561Z,8.6
2023-05-08T00:55:45.535Z,8.7
2023-05-08T00:57:02.544Z,8.9
2023-05-08T00:58:19.563Z,8.9
2023-05-08T00:59:36.556Z,8.9
2023-05-08T01:00:53.540Z,8.9
2023-05-08T01:02:10.616Z,8.9
2023-05-08T01:03:27.646Z,8.9
2023-05-08T01:04:44.603Z,9
2023-05-08T01:06:01.570Z,9
2023-05-08T01:07:18.575Z,9
2023-05-08T01:08:35.560Z,9
2023-05-08T01:09:52.801Z,8.9
2023-05-08T01:11:09.554Z,9
2023-05-08T01:12:26.567Z,9
2023-05-08T01:13:43.580Z,9
2023-05-08T01:15:00.610Z,8.9
2023-05-08T01:16:17.593Z,8.9
2023-05-08T01:17:34.602Z,8.9
2023-05-08T01:18:51.564Z,8.9
2023-05-08T01:20:08.643Z,9.1
2023-05-08T01:21:25.568Z,9.1
2023-05-08T01:22:42.646Z,9.1
2023-05-08T01:23:59.570Z,8.9
2023-05-08T01:25:16.639Z,8.9
2023-05-08T01:26:33.564Z,8.9
2023-05-08T01:27:50.575Z,8.9
2023-05-08T01:29:07.742Z,9
2023-05-08T01:30:24.693Z,9
2023-05-08T01:31:41.580Z,9
2023-05-08T01:32:58.631Z,8.9
2023-05-08T01:34:15.597Z,8.7
2023-05-08T01:35:32.665Z,8.5
2023-05-08T01:36:49.593Z,8.3
2023-05-08T01:38:06.599Z,8.2
2023-05-08T01:39:23.628Z,8.1
2023-05-08T01:40:40.671Z,8.1
2023-05-08T01:41:57.598Z,8.1
2023-05-08T01:43:14.617Z,8.2
2023-05-08T01:44:31.636Z,8.3
2023-05-08T01:45:48.680Z,8.5
2023-05-08T01:47:05.943Z,8.5
2023-05-08T01:48:22.945Z,8.6
2023-05-08T01:49:39.610Z,8.7
2023-05-08T01:50:56.615Z,8.7
2023-05-08T01:52:13.601Z,8.7
2023-05-08T01:53:30.636Z,8.8
2023-05-08T01:54:47.631Z,8.7
2023-05-08T01:56:04.613Z,8.7
2023-05-08T01:57:21.631Z,8.7
2023-05-08T01:58:38.988Z,8.7
2023-05-08T01:59:55.673Z,8.7
2023-05-08T02:01:12.647Z,8.7
2023-05-08T02:02:29.716Z,8.6
2023-05-08T02:03:46.818Z,8.6
2023-05-08T02:05:03.627Z,8.5
2023-05-08T02:06:20.634Z,8.4
2023-05-08T02:07:37.629Z,8.3
2023-05-08T02:08:54.656Z,8.3
2023-05-08T02:10:11.838Z,8.3
2023-05-08T02:11:29.413Z,8.3
2023-05-08T02:12:46.661Z,8.2
2023-05-08T02:14:03.953Z,8.1
2023-05-08T02:15:20.693Z,8
2023-05-08T02:16:37.763Z,8.1
2023-05-08T02:17:54.663Z,8.1
2023-05-08T02:19:11.734Z,8.2
2023-05-08T02:20:28.739Z,8.2
2023-05-08T02:21:45.647Z,8.1
2023-05-08T02:23:02.689Z,8
2023-05-08T02:24:19.685Z,7.8
2023-05-08T02:25:36.661Z,7.7
2023-05-08T02:26:53.677Z,7.5
2023-05-08T02:28:10.659Z,7.6
2023-05-08T02:29:27.660Z,7.6
2023-05-08T02:30:44.760Z,7.7
2023-05-08T02:32:01.813Z,7.8
2023-05-08T02:33:18.658Z,7.8
2023-05-08T02:34:35.671Z,7.9
2023-05-08T02:35:52.663Z,8
2023-05-08T02:37:09.727Z,8.1
2023-05-08T02:38:26.708Z,8
2023-05-08T02:39:43.695Z,8
2023-05-08T02:41:00.705Z,8
2023-05-08T02:42:17.726Z,8
2023-05-08T02:43:34.677Z,8.1
2023-05-08T02:44:51.688Z,8.1
2023-05-08T02:46:08.866Z,8.1
2023-05-08T02:47:25.782Z,8
2023-05-08T02:48:42.692Z,8
2023-05-08T02:49:59.720Z,7.9
2023-05-08T02:51:16.704Z,8
2023-05-08T02:52:33.711Z,7.9
2023-05-08T02:53:50.683Z,8
2023-05-08T02:55:07.709Z,7.9
2023-05-08T02:56:24.687Z,7.9
2023-05-08T02:57:41.729Z,7.9
2023-05-08T02:58:58.752Z,8
2023-05-08T03:00:15.718Z,8.1
2023-05-08T03:01:32.839Z,8.1
2023-05-08T03:02:49.852Z,8.1
2023-05-08T03:04:06.744Z,8.1
2023-05-08T03:05:23.726Z,8.1
2023-05-08T03:06:40.713Z,8.1
2023-05-08T03:07:57.737Z,8
2023-05-08T03:09:14.733Z,8
2023-05-08T03:10:31.719Z,8
2023-05-08T03:11:48.740Z,8.1
2023-05-08T03:13:05.741Z,8
2023-05-08T03:14:22.786Z,8
2023-05-08T03:15:39.749Z,8
2023-05-08T03:16:56.746Z,8
2023-05-08T03:18:13.719Z,8.1
2023-05-08T03:19:30.742Z,8
2023-05-08T03:20:47.735Z,8
2023-05-08T03:22:04.749Z,8
2023-05-08T03:23:22.008Z,8.1
2023-05-08T03:24:38.751Z,8
2023-05-08T03:25:55.796Z,7.9
2023-05-08T03:27:12.816Z,7.8
2023-05-08T03:28:29.724Z,7.6
2023-05-08T03:29:46.729Z,7.5
2023-05-08T03:31:03.742Z,7.3
2023-05-08T03:32:20.832Z,7.1
2023-05-08T03:33:37.733Z,7
2023-05-08T03:34:54.735Z,6.9
2023-05-08T03:36:11.772Z,7
2023-05-08T03:37:28.841Z,7
2023-05-08T03:38:45.747Z,7
2023-05-08T03:40:02.761Z,7.1
2023-05-08T03:41:19.777Z,7.3
2023-05-08T03:42:36.793Z,7.5
2023-05-08T03:43:53.748Z,7.5
2023-05-08T03:45:10.828Z,7.6
2023-05-08T03:46:27.826Z,7.6
2023-05-08T03:47:44.801Z,7.7
2023-05-08T03:49:01.778Z,7.8
2023-05-08T03:50:18.794Z,7.9
2023-05-08T03:51:35.815Z,8
2023-05-08T03:52:52.767Z,8.1
2023-05-08T03:54:09.771Z,8.2
2023-05-08T03:55:26.806Z,8.2
2023-05-08T03:56:43.795Z,8.2
2023-05-08T03:58:00.778Z,8.1
2023-05-08T03:59:17.797Z,8.1
2023-05-08T04:00:34.784Z,8.1
2023-05-08T04:01:51.886Z,8
2023-05-08T04:03:08.877Z,7.9
2023-05-08T04:04:25.865Z,7.9
2023-05-08T04:05:42.790Z,7.9
2023-05-08T04:06:59.791Z,7.8
2023-05-08T04:08:16.801Z,7.7
2023-05-08T04:09:33.828Z,7.8
2023-05-08T04:10:50.811Z,7.9
2023-05-08T04:12:07.819Z,7.9
2023-05-08T04:13:24.960Z,8
2023-05-08T04:14:41.817Z,8
2023-05-08T04:15:58.801Z,8
2023-05-08T04:17:15.800Z,8
2023-05-08T04:18:32.962Z,8
2023-05-08T04:19:49.801Z,8
2023-05-08T04:21:06.814Z,8.1
2023-05-08T04:22:23.809Z,8.2
2023-05-08T04:23:40.834Z,8.1
2023-05-08T04:24:57.831Z,8.1
2023-05-08T04:26:16.469Z,8.1
2023-05-08T04:27:31.822Z,8
2023-05-08T04:28:48.818Z,8
2023-05-08T04:30:05.833Z,8
2023-05-08T04:31:22.920Z,8
2023-05-08T04:32:40.849Z,8
2023-05-08T04:33:56.927Z,8
2023-05-08T04:35:14.177Z,8.1
2023-05-08T04:36:30.895Z,8.3
2023-05-08T04:37:47.838Z,8.4
2023-05-08T04:39:04.844Z,8.3
2023-05-08T04:40:21.870Z,8.4
2023-05-08T04:41:38.935Z,8.4
2023-05-08T04:42:55.850Z,8.5
2023-05-08T04:44:12.845Z,8.6
2023-05-08T04:45:29.876Z,8.6
2023-05-08T04:46:47.023Z,8.7
2023-05-08T04:48:04.745Z,8.8
2023-05-08T04:49:22.879Z,8.9
2023-05-08T04:50:39.890Z,8.9
2023-05-08T04:51:56.870Z,8.9
2023-05-08T04:53:14.256Z,9
2023-05-08T04:54:30.900Z,9.1
2023-05-08T04:55:47.918Z,9.1
2023-05-08T04:57:04.860Z,9.2
2023-05-08T04:58:21.905Z,9.1
2023-05-08T04:59:38.882Z,9.1
2023-05-08T05:00:55.868Z,9.1
2023-05-08T05:02:12.902Z,9.1
2023-05-08T05:03:29.917Z,8.9
2023-05-08T05:04:46.971Z,8.9
2023-05-08T05:06:03.872Z,9
2023-05-08T05:07:20.893Z,9
2023-05-08T05:08:37.872Z,9.1
2023-05-08T05:09:54.903Z,9.2
2023-05-08T05:11:11.883Z,9.2
2023-05-08T05:12:28.900Z,9.2
2023-05-08T05:13:45.876Z,9.2
2023-05-08T05:15:02.951Z,9.4
2023-05-08T05:16:19.888Z,9.5
2023-05-08T05:17:36.930Z,9.5
2023-05-08T05:18:53.885Z,9.5
2023-05-08T05:20:10.954Z,9.4
2023-05-08T05:21:27.947Z,9.3
2023-05-08T05:22:44.888Z,9.3
2023-05-08T05:24:01.905Z,9.3
2023-05-08T05:25:18.953Z,9.3
2023-05-08T05:26:36.889Z,9.5
2023-05-08T05:27:52.906Z,9.7
2023-05-08T05:29:09.896Z,9.8
2023-05-08T05:30:26.948Z,9.8
2023-05-08T05:31:43.961Z,9.8
2023-05-08T05:33:00.963Z,9.8
2023-05-08T05:34:17.899Z,10
2023-05-08T05:35:34.980Z,10.2
2023-05-08T05:36:51.908Z,10.3
2023-05-08T05:38:08.916Z,10.5
2023-05-08T05:39:25.922Z,10.6
2023-05-08T05:40:42.981Z,10.6
2023-05-08T05:41:59.960Z,10.7
2023-05-08T05:43:16.925Z,10.7
2023-05-08T05:44:33.933Z,10.4
2023-05-08T05:45:50.991Z,10.2
2023-05-08T05:47:08.003Z,10.1
2023-05-08T05:48:24.925Z,10
2023-05-08T05:49:42.150Z,10
2023-05-08T05:50:59.037Z,9.9
2023-05-08T05:52:16.299Z,9.8
2023-05-08T05:53:32.925Z,9.8
2023-05-08T05:54:49.927Z,9.8
2023-05-08T05:56:06.975Z,9.7
2023-05-08T05:57:23.946Z,9.7
2023-05-08T05:58:40.935Z,9.7
2023-05-08T05:59:57.956Z,9.9
2023-05-08T06:01:15.486Z,10
2023-05-08T06:02:32.028Z,10
2023-05-08T06:03:49.071Z,10
2023-05-08T06:05:05.966Z,10
2023-05-08T06:06:22.991Z,10
2023-05-08T06:07:39.958Z,10
2023-05-08T06:08:56.951Z,10.2
2023-05-08T06:10:13.994Z,10.4
2023-05-08T06:11:31.040Z,10.6
2023-05-08T06:12:48.002Z,10.9
2023-05-08T06:14:04.985Z,10.9
2023-05-08T06:15:21.954Z,11
2023-05-08T06:16:38.991Z,11.1
2023-05-08T06:17:56.037Z,11.3
2023-05-08T06:19:12.982Z,11.7
2023-05-08T06:20:29.971Z,12.5
2023-05-08T06:21:47.050Z,13
2023-05-08T06:23:04.000Z,13.7
2023-05-08T06:24:21.033Z,14.2
2023-05-08T06:25:37.969Z,14.4
2023-05-08T06:26:55.367Z,14.7
2023-05-08T06:28:11.971Z,14.8
2023-05-08T06:29:29.025Z,15.1
2023-05-08T06:30:46.002Z,15.4
2023-05-08T06:32:03.000Z,15.6
2023-05-08T06:33:20.037Z,15.6
2023-05-08T06:34:37.037Z,15.5
2023-05-08T06:35:53.992Z,15.4
2023-05-08T06:37:11.056Z,15.4
2023-05-08T06:38:28.003Z,15.5
2023-05-08T06:39:45.122Z,15.8
2023-05-08T06:41:02.020Z,16
2023-05-08T06:42:19.007Z,15.9
2023-05-08T06:43:35.994Z,15.9
2023-05-08T06:44:53.025Z,16
2023-05-08T06:46:10.045Z,16.3
2023-05-08T06:47:27.049Z,16.8
2023-05-08T06:48:44.015Z,16.9
2023-05-08T06:50:01.011Z,16.7
2023-05-08T06:51:18.065Z,16.5
2023-05-08T06:52:35.049Z,16.2
2023-05-08T06:53:52.034Z,15.9
2023-05-08T06:55:09.042Z,15.9
2023-05-08T06:56:26.052Z,15.7
2023-05-08T06:57:43.028Z,15.7
2023-05-08T06:59:07.547Z,15.9
2023-05-08T07:00:17.053Z,16
2023-05-08T07:01:34.135Z,16.1
2023-05-08T07:02:51.098Z,16.1
2023-05-08T07:04:08.119Z,15.9
2023-05-08T07:05:25.064Z,15.9
2023-05-08T07:06:42.063Z,16
2023-05-08T07:07:59.119Z,16.3
2023-05-08T07:09:16.089Z,16.4
2023-05-08T07:10:35.064Z,16.4
2023-05-08T07:11:52.069Z,16.3
2023-05-08T07:13:09.075Z,16
2023-05-08T07:14:26.040Z,15.6
2023-05-08T07:15:43.227Z,15.3
2023-05-08T07:17:00.064Z,15.4
2023-05-08T07:18:17.088Z,15.4
2023-05-08T07:19:34.071Z,15.4
2023-05-08T07:20:51.102Z,15.4
2023-05-08T07:22:08.142Z,15.9
2023-05-08T07:23:25.117Z,15.9
2023-05-08T07:24:42.106Z,16.2
2023-05-08T07:25:59.084Z,16.6
2023-05-08T07:27:16.098Z,16.6
2023-05-08T07:28:33.171Z,16.6
2023-05-08T07:29:50.071Z,16.6
2023-05-08T07:31:07.200Z,16.4
2023-05-08T07:32:24.083Z,16.2
2023-05-08T07:33:41.165Z,16.1
2023-05-08T07:34:58.095Z,16.2
2023-05-08T07:36:15.074Z,16.5
2023-05-08T07:37:32.087Z,17
2023-05-08T07:38:49.189Z,17.6
2023-05-08T07:40:06.090Z,17.7
2023-05-08T07:41:23.132Z,17.7
2023-05-08T07:42:40.092Z,17.3
2023-05-08T07:43:57.130Z,17
2023-05-08T07:45:14.396Z,16.7
2023-05-08T07:46:31.091Z,16.4
2023-05-08T07:47:48.209Z,16.2
2023-05-08T07:49:05.108Z,15.9
2023-05-08T07:50:22.159Z,15.8
2023-05-08T07:51:39.134Z,16
2023-05-08T07:52:56.207Z,16.2
2023-05-08T07:54:13.141Z,16.5
2023-05-08T07:55:30.116Z,16.9
2023-05-08T07:56:47.112Z,17.2
2023-05-08T07:58:04.166Z,17.4
2023-05-08T07:59:21.131Z,17.7
2023-05-08T08:00:38.128Z,17.8
2023-05-08T08:01:55.158Z,18.1
2023-05-08T08:03:12.219Z,18.5
2023-05-08T08:04:29.245Z,19
2023-05-08T08:05:46.240Z,19.4
2023-05-08T08:07:03.374Z,19.3
2023-05-08T08:08:20.169Z,19.3
2023-05-08T08:09:37.239Z,19.3
2023-05-08T08:10:54.168Z,19.1
2023-05-08T08:12:11.132Z,18.9
2023-05-08T08:13:28.217Z,19.1
2023-05-08T08:14:45.136Z,19
2023-05-08T08:16:02.165Z,18.7
2023-05-08T08:17:19.163Z,18.1
2023-05-08T08:18:36.167Z,17.8
2023-05-08T08:19:53.161Z,17.6
2023-05-08T08:21:10.252Z,17.4
2023-05-08T08:22:27.154Z,17.4
2023-05-08T08:23:44.176Z,17.7
2023-05-08T08:25:01.288Z,18.4
2023-05-08T08:26:18.207Z,18.9
2023-05-08T08:27:35.190Z,19
2023-05-08T08:28:52.175Z,19.1
2023-05-08T08:30:17.329Z,18.9
2023-05-08T08:31:26.509Z,18.9
2023-05-08T08:32:43.280Z,18.9
2023-05-08T08:34:00.165Z,18.8
2023-05-08T08:35:17.414Z,18.9
2023-05-08T08:36:34.250Z,19.2
2023-05-08T08:37:51.209Z,19.6
2023-05-08T08:39:10.469Z,19.8
2023-05-08T08:40:25.385Z,19.8
2023-05-08T08:41:42.185Z,19.8
2023-05-08T08:42:59.264Z,19.5
2023-05-08T08:44:16.194Z,19.2
2023-05-08T08:45:33.233Z,18.9
2023-05-08T08:46:50.316Z,18.8
2023-05-08T08:48:12.268Z,18.9
2023-05-08T08:49:29.242Z,18.8
2023-05-08T08:50:46.207Z,18.2
2023-05-08T08:52:03.213Z,17.8
2023-05-08T08:53:20.215Z,17.6
2023-05-08T08:54:37.277Z,17.5
2023-05-08T08:55:54.320Z,17.6
2023-05-08T08:57:11.193Z,17.5
2023-05-08T08:58:28.192Z,17.6
2023-05-08T08:59:45.249Z,17.7
2023-05-08T09:01:02.247Z,17.6
2023-05-08T09:02:19.329Z,17.7
2023-05-08T09:03:36.299Z,18
2023-05-08T09:04:53.212Z,18.2
2023-05-08T09:06:10.274Z,18.2
2023-05-08T09:07:27.212Z,18.1
2023-05-08T09:08:44.242Z,18.1
2023-05-08T09:10:01.254Z,18.1
2023-05-08T09:11:18.475Z,18
2023-05-08T09:12:35.248Z,17.7
2023-05-08T09:13:52.221Z,17.3
2023-05-08T09:15:09.255Z,17
2023-05-08T09:16:26.261Z,17
2023-05-08T09:17:43.371Z,17.2
2023-05-08T09:19:00.265Z,17.5
2023-05-08T09:20:17.316Z,17.8
2023-05-08T09:21:34.271Z,17.8
2023-05-08T09:22:51.237Z,17.7
2023-05-08T09:24:08.251Z,17.6
2023-05-08T09:25:25.277Z,17.5
2023-05-08T09:26:42.366Z,17.2
2023-05-08T09:27:59.286Z,17.1
2023-05-08T09:29:16.270Z,17.1
2023-05-08T09:30:33.883Z,17.1
2023-05-08T09:31:50.338Z,17
2023-05-08T09:33:07.421Z,17
2023-05-08T09:34:24.329Z,17.2
2023-05-08T09:35:41.289Z,17.5
2023-05-08T09:36:58.263Z,17.3
2023-05-08T09:38:15.268Z,17.1
2023-05-08T09:39:32.281Z,17.1
2023-05-08T09:40:49.285Z,17.1
2023-05-08T09:42:06.399Z,17
2023-05-08T09:43:23.308Z,17.1
2023-05-08T09:44:40.281Z,17.4
2023-05-08T09:45:57.320Z,17.4
2023-05-08T09:47:14.285Z,17.6
2023-05-08T09:48:31.286Z,18
2023-05-08T09:49:48.346Z,18.4
2023-05-08T09:51:05.294Z,18.6
2023-05-08T09:52:22.317Z,18.6
2023-05-08T09:53:39.323Z,18.6
2023-05-08T09:54:56.358Z,19
2023-05-08T09:56:13.293Z,19.5
2023-05-08T09:57:30.429Z,19.8
2023-05-08T09:58:47.310Z,19.7
2023-05-08T10:00:04.353Z,19.7
2023-05-08T10:01:21.403Z,19.8
2023-05-08T10:02:38.327Z,19.8
2023-05-08T10:03:55.348Z,19.8
2023-05-08T10:05:12.340Z,19.8
2023-05-08T10:06:29.364Z,20
2023-05-08T10:07:46.296Z,20
2023-05-08T10:09:03.358Z,19.9
2023-05-08T10:10:20.359Z,19.4
2023-05-08T10:11:37.336Z,19.1
2023-05-08T10:12:54.496Z,19.1
2023-05-08T10:14:11.309Z,19.3
2023-05-08T10:15:28.313Z,19.4
2023-05-08T10:16:45.399Z,19.7
2023-05-08T10:18:02.459Z,20.1
2023-05-08T10:19:19.344Z,20.1
2023-05-08T10:20:36.323Z,19.9
2023-05-08T10:21:53.382Z,19.9
2023-05-08T10:23:10.386Z,19.9
2023-05-08T10:24:27.317Z,20
2023-05-08T10:25:44.349Z,20
2023-05-08T10:28:18.462Z,20
2023-05-08T10:29:35.332Z,20
2023-05-08T10:30:52.424Z,19.9
2023-05-08T10:32:09.477Z,19.9
2023-05-08T10:33:26.640Z,19.9
2023-05-08T10:34:43.383Z,20.3
2023-05-08T10:36:00.374Z,20.8
2023-05-08T10:37:17.390Z,21
2023-05-08T10:38:34.369Z,20.7
2023-05-08T10:39:51.363Z,20.3
2023-05-08T10:41:08.381Z,20.1
2023-05-08T10:42:25.400Z,19.7
2023-05-08T10:43:42.520Z,19.6
2023-05-08T10:44:59.397Z,19.9
2023-05-08T10:46:16.407Z,20.1
2023-05-08T10:47:33.397Z,20.2
2023-05-08T10:48:50.360Z,20.2
2023-05-08T10:50:07.410Z,20.3
2023-05-08T10:51:24.428Z,20.5
2023-05-08T10:52:41.389Z,20.5
2023-05-08T10:53:58.376Z,20.5
2023-05-08T10:55:15.462Z,20.7
2023-05-08T10:56:32.397Z,21
2023-05-08T10:57:49.426Z,21.2
2023-05-08T10:59:06.436Z,21.4
2023-05-08T11:00:23.418Z,21.3
2023-05-08T11:01:40.490Z,21
2023-05-08T11:02:57.467Z,20.7
2023-05-08T11:04:14.461Z,20.8
2023-05-08T11:05:31.414Z,21.1
2023-05-08T11:06:48.449Z,21.1
2023-05-08T11:08:05.509Z,20.7
2023-05-08T11:09:22.525Z,20.2
2023-05-08T11:10:39.397Z,19.6
2023-05-08T11:11:56.413Z,19.4
2023-05-08T11:13:13.574Z,19.4
2023-05-08T11:14:30.452Z,19.3
2023-05-08T11:15:47.516Z,19.4
2023-05-08T11:17:04.439Z,19
2023-05-08T11:18:21.475Z,18.9
2023-05-08T11:19:38.523Z,19.1
2023-05-08T11:20:56.001Z,19.3
2023-05-08T11:22:13.133Z,19.6
2023-05-08T11:23:30.461Z,19.7
2023-05-08T11:24:47.497Z,19.8
2023-05-08T11:26:04.431Z,19.7
2023-05-08T11:27:21.427Z,19.9
2023-05-08T11:28:38.522Z,19.8
2023-05-08T11:29:55.480Z,19.5
2023-05-08T11:31:12.476Z,19.6
2023-05-08T11:32:29.563Z,19.7
2023-05-08T11:33:46.449Z,19.7
2023-05-08T11:35:03.472Z,19.8
2023-05-08T11:36:20.439Z,19.8
2023-05-08T11:37:37.462Z,20.2
2023-05-08T11:38:56.293Z,20.7
2023-05-08T11:40:11.937Z,21.2
2023-05-08T11:41:28.454Z,21.2
2023-05-08T11:42:45.453Z,21.1
2023-05-08T11:44:02.461Z,20.9
2023-05-08T11:45:19.561Z,20.6
2023-05-08T11:46:36.494Z,20.8
2023-05-08T11:47:53.476Z,20.9
2023-05-08T11:49:10.472Z,21.1
2023-05-08T11:50:27.489Z,21.2
2023-05-08T11:51:44.520Z,21.2
2023-05-08T11:53:01.473Z,21.3
2023-05-08T11:54:18.512Z,21.6
2023-05-08T11:55:35.507Z,21.9
2023-05-08T11:56:52.473Z,22.3
2023-05-08T11:58:12.584Z,22.3
2023-05-08T11:59:29.503Z,21.7
2023-05-08T12:00:46.600Z,21.3
2023-05-08T12:02:08.935Z,21.1
2023-05-08T12:03:20.585Z,21.1
2023-05-08T12:04:37.557Z,21.1
2023-05-08T12:05:54.511Z,21.3
2023-05-08T12:07:11.502Z,21.6
2023-05-08T12:08:28.502Z,21.9
2023-05-08T12:09:45.518Z,21.8
2023-05-08T12:11:02.545Z,21.9
2023-05-08T12:12:19.518Z,22.3
2023-05-08T12:13:36.564Z,22.2
2023-05-08T12:14:53.547Z,21.6
2023-05-08T12:16:10.694Z,21.1
2023-05-08T12:17:27.582Z,21
2023-05-08T12:18:44.513Z,21
2023-05-08T12:20:01.575Z,20.8
2023-05-08T12:21:18.784Z,20.5
2023-05-08T12:22:35.544Z,20.8
2023-05-08T12:23:52.523Z,21.4
2023-05-08T12:25:09.600Z,21.6
2023-05-08T12:26:26.535Z,21.8
2023-05-08T12:27:43.527Z,21.4
2023-05-08T12:29:00.517Z,20.8
2023-05-08T12:30:18.190Z,20.6
2023-05-08T12:31:34.605Z,20.7
2023-05-08T12:32:51.576Z,20.5
2023-05-08T12:34:08.554Z,20.3
2023-05-08T12:35:25.564Z,20.6
2023-05-08T12:36:42.555Z,21
2023-05-08T12:37:59.559Z,21.3
2023-05-08T12:39:16.557Z,21.3
2023-05-08T12:40:33.580Z,21
2023-05-08T12:41:50.577Z,20.8
2023-05-08T12:43:07.567Z,21.3
2023-05-08T12:44:24.574Z,21.7
2023-05-08T12:45:41.601Z,21.8
2023-05-08T12:46:58.789Z,21.5
2023-05-08T12:48:15.608Z,21.5
2023-05-08T12:49:32.577Z,21.7
2023-05-08T12:50:49.582Z,22
2023-05-08T12:52:06.683Z,22
2023-05-08T12:53:23.592Z,21.8
2023-05-08T12:54:40.625Z,21.8
2023-05-08T12:55:57.635Z,22.1
2023-05-08T12:57:14.575Z,21.9
2023-05-08T12:58:31.623Z,21.8
2023-05-08T12:59:48.584Z,21.8
2023-05-08T13:01:05.653Z,21.4
2023-05-08T13:02:22.795Z,20.7
2023-05-08T13:03:39.651Z,20.4
2023-05-08T13:04:56.784Z,20.4
2023-05-08T13:06:13.654Z,20.7
2023-05-08T13:07:30.658Z,21.4
2023-05-08T13:08:47.651Z,21.8
2023-05-08T13:10:04.870Z,22
2023-05-08T13:11:21.621Z,22.1
2023-05-08T13:12:38.637Z,22.2
2023-05-08T13:13:55.644Z,22.2
2023-05-08T13:15:12.780Z,22.3
2023-05-08T13:16:29.630Z,22.1
2023-05-08T13:17:46.750Z,22
2023-05-08T13:19:03.804Z,22
2023-05-08T13:20:20.620Z,22
2023-05-08T13:21:37.619Z,21.6
2023-05-08T13:22:55.127Z,21.3
2023-05-08T13:24:11.884Z,21.4
2023-05-08T13:25:28.811Z,21.7
2023-05-08T13:26:45.646Z,22.1
2023-05-08T13:28:02.646Z,22.1
2023-05-08T13:29:19.665Z,22.1
2023-05-08T13:30:36.776Z,21.6
2023-05-08T13:31:53.760Z,21.3
2023-05-08T13:33:10.790Z,21.3
2023-05-08T13:34:27.773Z,21.3
2023-05-08T13:35:44.647Z,21.4
2023-05-08T13:37:02.074Z,21.4
2023-05-08T13:38:18.633Z,21.6
2023-05-08T13:39:35.726Z,22.1
2023-05-08T13:40:52.635Z,22.6
2023-05-08T13:42:09.692Z,22.7
2023-05-08T13:43:26.681Z,22.8
2023-05-08T13:44:43.686Z,22.9
2023-05-08T13:46:00.705Z,23
2023-05-08T13:47:17.683Z,23.1
2023-05-08T13:48:34.778Z,22.8
2023-05-08T13:49:51.651Z,22.9
2023-05-08T13:51:08.714Z,22.6
2023-05-08T13:52:25.711Z,22.3
2023-05-08T13:53:42.716Z,22.1
2023-05-08T13:54:59.657Z,22.4
2023-05-08T13:56:16.658Z,22.9
2023-05-08T13:57:33.680Z,23
2023-05-08T13:58:50.709Z,23.1
2023-05-08T14:00:07.707Z,22.9
2023-05-08T14:01:26.761Z,22.6
2023-05-08T14:02:41.742Z,22.3
2023-05-08T14:03:58.951Z,22.1
2023-05-08T14:05:15.872Z,21.7
2023-05-08T14:06:32.688Z,21.3
2023-05-08T14:07:49.688Z,21.1
2023-05-08T14:09:06.725Z,20.9
2023-05-08T14:10:23.709Z,20.9
2023-05-08T14:11:40.695Z,21
2023-05-08T14:12:58.148Z,21.1
2023-05-08T14:14:14.692Z,21
2023-05-08T14:15:36.799Z,20.9
2023-05-08T14:16:48.705Z,20.9
2023-05-08T14:18:05.880Z,20.9
2023-05-08T14:19:22.846Z,21
2023-05-08T14:20:39.712Z,20.7
2023-05-08T14:21:56.708Z,20.3
2023-05-08T14:23:13.792Z,20.1
2023-05-08T14:24:30.768Z,20.2
2023-05-08T14:25:47.753Z,20.5
2023-05-08T14:27:04.743Z,20.8
2023-05-08T14:28:21.742Z,20.9
2023-05-08T14:29:38.758Z,20.7
2023-05-08T14:30:55.748Z,20.3
2023-05-08T14:32:12.747Z,20
2023-05-08T14:33:29.770Z,19.9
2023-05-08T14:34:46.961Z,19.9
2023-05-08T14:36:03.767Z,20.1
2023-05-08T14:37:21.061Z,20
2023-05-08T14:38:37.839Z,20.2
2023-05-08T14:39:54.775Z,20.5
2023-05-08T14:41:11.801Z,20.9
2023-05-08T14:42:29.070Z,20.9
2023-05-08T14:43:46.768Z,21
2023-05-08T14:45:03.860Z,21.1
2023-05-08T14:46:20.796Z,21.1
2023-05-08T14:47:37.867Z,21.1
2023-05-08T14:48:55.602Z,21.2
2023-05-08T14:50:11.984Z,21.6
2023-05-08T14:51:28.751Z,22
2023-05-08T14:52:45.780Z,22.2
2023-05-08T14:54:02.950Z,22.1
2023-05-08T14:55:20.368Z,22.1
2023-05-08T14:56:44.371Z,22.2
2023-05-08T14:57:53.765Z,22.1
2023-05-08T14:59:10.836Z,21.8
2023-05-08T15:00:27.785Z,21.3
2023-05-08T15:01:44.819Z,20.9
2023-05-08T15:03:01.881Z,20.5
2023-05-08T15:04:18.903Z,20.3
2023-05-08T15:05:35.939Z,20.3
2023-05-08T15:06:52.791Z,20.3
2023-05-08T15:08:09.816Z,20.2
2023-05-08T15:09:26.813Z,20.2
2023-05-08T15:10:43.791Z,20.3
2023-05-08T15:12:00.807Z,20.4
2023-05-08T15:13:17.899Z,20.7
2023-05-08T15:14:34.831Z,20.8
2023-05-08T15:15:51.902Z,20.8
2023-05-08T15:17:08.793Z,20.7
2023-05-08T15:18:26.009Z,20.9
2023-05-08T15:19:43.839Z,20.8
2023-05-08T15:21:00.943Z,20.7
2023-05-08T15:22:17.827Z,20.5
2023-05-08T15:23:34.824Z,20.4
2023-05-08T15:24:51.945Z,20.5
2023-05-08T15:26:08.820Z,20.7
2023-05-08T15:27:25.846Z,20.8
2023-05-08T15:28:42.821Z,20.8
2023-05-08T15:29:59.842Z,20.8
2023-05-08T15:31:16.871Z,20.5
2023-05-08T15:32:33.882Z,20.3
2023-05-08T15:33:50.870Z,20.4
2023-05-08T15:35:07.872Z,20.6
2023-05-08T15:36:25.386Z,20.6
2023-05-08T15:37:41.899Z,20.5
2023-05-08T15:38:58.835Z,20.4
2023-05-08T15:40:15.841Z,20.4
2023-05-08T15:41:32.839Z,20.5
2023-05-08T15:42:49.917Z,20.6
2023-05-08T15:44:06.863Z,20.6
2023-05-08T15:45:23.880Z,20.7
2023-05-08T15:46:40.857Z,20.7
2023-05-08T15:47:57.895Z,20.3
2023-05-08T15:49:14.940Z,20.1
2023-05-08T15:50:31.869Z,20.2
2023-05-08T15:51:49.005Z,20.2
2023-05-08T15:53:05.888Z,20
2023-05-08T15:54:22.889Z,20.2
2023-05-08T15:55:39.873Z,20.4
2023-05-08T15:56:56.859Z,20.7
2023-05-08T15:58:13.896Z,20.9
2023-05-08T15:59:30.860Z,21
2023-05-08T16:00:47.907Z,20.9
2023-05-08T16:02:04.920Z,20.7
2023-05-08T16:03:22.208Z,20.6
2023-05-08T16:04:38.872Z,20.4
2023-05-08T16:05:55.894Z,20
2023-05-08T16:07:12.999Z,19.6
2023-05-08T16:08:29.952Z,19.3
2023-05-08T16:09:46.934Z,19.2
2023-05-08T16:11:03.951Z,19.1
2023-05-08T16:12:21.956Z,19.1
2023-05-08T16:13:38.957Z,19.2
2023-05-08T16:14:55.893Z,19.3
2023-05-08T16:16:13.316Z,19.4
2023-05-08T16:17:29.951Z,19.4
2023-05-08T16:18:46.946Z,19.4
2023-05-08T16:20:03.949Z,19.4
2023-05-08T16:21:20.955Z,19.4
2023-05-08T16:22:38.028Z,19.3
2023-05-08T16:23:54.916Z,19.2
2023-05-08T16:25:12.138Z,19.2
2023-05-08T16:26:28.917Z,19.3
2023-05-08T16:27:45.910Z,19.4
2023-05-08T16:29:02.937Z,19.4
2023-05-08T16:30:20.183Z,19.4
2023-05-08T16:31:40.072Z,19.4
2023-05-08T16:32:56.978Z,19.5
2023-05-08T16:34:13.924Z,19.6
2023-05-08T16:35:30.944Z,19.5
2023-05-08T16:36:47.956Z,19.4
2023-05-08T16:38:05.078Z,19.3
2023-05-08T16:39:21.957Z,19.2
2023-05-08T16:40:38.964Z,19.2
2023-05-08T16:41:55.944Z,19.2
2023-05-08T16:43:12.983Z,19.1
2023-05-08T16:44:29.959Z,19.1
2023-05-08T16:45:46.950Z,19.2
2023-05-08T16:47:03.966Z,19.2
2023-05-08T16:48:20.981Z,19.2
2023-05-08T16:49:37.952Z,19.1
2023-05-08T16:50:54.954Z,19
2023-05-08T16:52:11.988Z,19
2023-05-08T16:53:29.074Z,18.9
2023-05-08T16:54:45.988Z,18.8
2023-05-08T16:56:03.001Z,18.7
2023-05-08T16:57:20.033Z,18.7
2023-05-08T16:58:36.962Z,18.6
2023-05-08T16:59:53.954Z,18.6
2023-05-08T17:01:11.048Z,18.6
2023-05-08T17:02:28.131Z,18.6
2023-05-08T17:03:45.097Z,18.7
2023-05-08T17:05:02.027Z,18.7
2023-05-08T17:06:18.990Z,18.8
2023-05-08T17:07:35.989Z,18.8
2023-05-08T17:08:53.107Z,18.7
2023-05-08T17:10:10.034Z,18.6
2023-05-08T17:11:26.983Z,18.6
2023-05-08T17:12:44.053Z,18.6
2023-05-08T17:14:01.019Z,18.5
2023-05-08T17:15:18.043Z,18.3
2023-05-08T17:16:35.080Z,18.3
2023-05-08T17:17:51.998Z,18.3
2023-05-08T17:19:09.013Z,18.3
2023-05-08T17:20:26.021Z,18.4
2023-05-08T17:21:42.994Z,18.4
2023-05-08T17:23:00.026Z,18.5
2023-05-08T17:24:17.146Z,18.5
2023-05-08T17:25:34.083Z,18.4
2023-05-08T17:26:51.019Z,18.2
2023-05-08T17:28:08.021Z,18.2